Time;durP1;ratioP1;P1;durP2;ratioP2;P2;SDS_P1;SDS_P2;PMS_P1;PMS_P2;Temp;Humidity;BMP_temperature;BMP_pressure;BME280_temperature;BME280_humidity;BME280_pressure;Samples;Min_cycle;Max_cycle;Signal;HPM_P1;HPM_P2
2023/12/04 00:00:26;;;;;;;1.13;0.50;;;8.30;99.90;;;;;;5012461;28;20174;-75
2023/12/04 00:02:52;;;;;;;0.90;0.60;;;8.30;99.90;;;;;;5029735;28;20182;-76
2023/12/04 00:05:18;;;;;;;0.93;0.53;;;8.20;99.90;;;;;;5035764;28;20173;-75
2023/12/04 00:07:43;;;;;;;0.83;0.40;;;8.10;99.90;;;;;;5039713;28;20178;-75
2023/12/04 00:10:09;;;;;;;1.43;0.50;;;8.20;99.90;;;;;;5031265;28;20180;-73
2023/12/04 00:12:35;;;;;;;1.43;0.50;;;8.20;99.90;;;;;;5030814;28;20294;-74
2023/12/04 00:15:00;;;;;;;1.43;0.60;;;8.20;99.90;;;;;;5030292;28;20652;-75
2023/12/04 00:17:26;;;;;;;1.90;0.73;;;8.20;99.90;;;;;;5030329;28;20544;-75
2023/12/04 00:19:52;;;;;;;1.53;0.60;;;8.20;99.90;;;;;;5029937;28;20820;-75
2023/12/04 00:22:17;;;;;;;2.03;0.60;;;8.10;99.90;;;;;;5029473;28;20182;-75
2023/12/04 00:24:43;;;;;;;0.83;0.40;;;8.20;99.90;;;;;;5031040;28;20647;-75
2023/12/04 00:27:08;;;;;;;0.47;0.40;;;8.10;99.90;;;;;;5052109;28;20184;-73
2023/12/04 00:29:34;;;;;;;1.00;0.63;;;8.50;99.90;;;;;;5042587;28;20380;-73
2023/12/04 00:32:00;;;;;;;0.27;0.27;;;8.10;99.90;;;;;;5033246;28;20181;-74
2023/12/04 00:34:25;;;;;;;1.33;0.40;;;8.10;99.90;;;;;;5012989;28;20213;-74
2023/12/04 00:36:51;;;;;;;0.43;0.30;;;8.20;99.90;;;;;;5029914;28;20193;-74
2023/12/04 00:39:17;;;;;;;1.23;0.40;;;8.10;99.90;;;;;;5028618;28;20688;-74
2023/12/04 00:41:42;;;;;;;0.40;0.20;;;7.90;99.90;;;;;;5030309;28;20174;-76
2023/12/04 00:44:08;;;;;;;1.80;0.47;;;8.00;99.90;;;;;;5029347;28;20209;-75
2023/12/04 00:46:34;;;;;;;1.07;0.47;;;8.00;99.90;;;;;;5033591;28;20177;-74
2023/12/04 00:49:00;;;;;;;0.57;0.27;;;8.10;99.90;;;;;;5033624;28;20236;-75
2023/12/04 00:51:26;;;;;;;1.10;0.60;;;8.10;99.90;;;;;;5033518;28;20177;-75
2023/12/04 00:53:52;;;;;;;0.83;0.40;;;8.30;99.90;;;;;;5033110;28;20679;-74
2023/12/04 00:56:19;;;;;;;0.97;0.40;;;8.00;99.90;;;;;;5033613;28;20217;-75
2023/12/04 00:58:45;;;;;;;1.20;0.40;;;8.00;99.90;;;;;;5033513;28;20178;-74
2023/12/04 01:01:10;;;;;;;0.77;0.40;;;7.90;99.90;;;;;;5032716;28;20184;-74
2023/12/04 01:03:37;;;;;;;0.57;0.30;;;8.00;99.90;;;;;;5034060;28;20181;-74
2023/12/04 01:06:03;;;;;;;2.00;0.50;;;7.50;99.90;;;;;;5032588;28;20232;-74
2023/12/04 01:08:29;;;;;;;2.27;0.50;;;7.90;99.90;;;;;;5033005;28;20680;-74
2023/12/04 01:10:55;;;;;;;1.17;0.30;;;;;;;;;;5032340;28;20190;-75
2023/12/04 01:13:20;;;;;;;1.07;0.37;;;8.00;99.90;;;;;;5033714;28;20213;-75
2023/12/04 01:15:48;;;;;;;0.63;0.30;;;7.90;99.90;;;;;;5032076;28;20193;-74
2023/12/04 01:18:14;;;;;;;1.03;0.40;;;7.70;99.90;;;;;;5045025;28;20186;-75
2023/12/04 01:20:40;;;;;;;1.07;0.37;;;7.80;99.90;;;;;;5032669;28;20323;-74
2023/12/04 01:23:06;;;;;;;0.23;0.20;;;7.80;99.90;;;;;;5032497;28;20189;-74
2023/12/04 01:25:31;;;;;;;0.87;0.40;;;7.80;99.90;;;;;;5033797;28;20182;-74
2023/12/04 01:27:57;;;;;;;1.60;0.57;;;7.40;99.90;;;;;;5032130;28;20204;-75
2023/12/04 01:30:22;;;;;;;0.40;0.30;;;7.70;99.90;;;;;;5032809;28;20544;-75
2023/12/04 01:32:48;;;;;;;1.60;0.40;;;7.70;99.90;;;;;;5031766;28;20723;-74
2023/12/04 01:35:14;;;;;;;0.80;0.40;;;7.80;99.90;;;;;;5032631;28;20666;-74
2023/12/04 01:37:39;;;;;;;0.47;0.20;;;7.70;99.90;;;;;;5031701;28;20182;-75
2023/12/04 01:40:06;;;;;;;1.00;0.30;;;7.70;99.90;;;;;;5033112;28;20224;-75
2023/12/04 01:42:32;;;;;;;1.90;0.40;;;7.60;99.90;;;;;;5031871;28;20214;-75
2023/12/04 01:44:58;;;;;;;1.40;0.50;;;7.90;99.90;;;;;;5032377;28;20597;-75
2023/12/04 01:47:25;;;;;;;2.57;0.40;;;7.80;99.90;;;;;;5033116;28;20178;-76
2023/12/04 01:49:51;;;;;;;1.20;0.40;;;7.70;99.90;;;;;;5032087;28;20549;-78
2023/12/04 01:52:17;;;;;;;0.63;0.40;;;7.70;99.90;;;;;;5033063;28;20316;-77
2023/12/04 01:54:43;;;;;;;1.80;0.50;;;7.80;99.90;;;;;;5031105;28;20240;-77
2023/12/04 01:57:10;;;;;;;1.70;0.23;;;7.80;99.90;;;;;;5032402;28;20166;-77
2023/12/04 01:59:36;;;;;;;1.00;0.40;;;7.70;99.90;;;;;;5031369;28;20179;-77
2023/12/04 02:02:02;;;;;;;0.70;0.30;;;8.80;99.90;;;;;;5032851;28;20268;-77
2023/12/04 02:04:27;;;;;;;1.90;0.43;;;7.60;99.90;;;;;;5031206;28;20320;-78
2023/12/04 02:06:53;;;;;;;0.93;0.20;;;7.70;99.90;;;;;;5031945;28;20221;-77
2023/12/04 02:09:19;;;;;;;2.33;0.27;;;7.70;99.90;;;;;;5031206;28;20185;-78
2023/12/04 02:11:45;;;;;;;1.10;0.17;;;7.70;99.90;;;;;;5032523;28;20182;-78
2023/12/04 02:14:11;;;;;;;0.17;0.17;;;7.50;99.90;;;;;;5031618;28;20359;-77
2023/12/04 02:16:41;;;;;;;2.13;0.23;;;7.70;99.90;;;;;;5031625;28;20644;-77
2023/12/04 02:19:13;;;;;;;1.60;0.17;;;7.60;99.90;;;;;;5032676;28;20173;-77
2023/12/04 02:21:38;;;;;;;0.70;0.20;;;7.60;99.90;;;;;;5031594;28;20521;-77
2023/12/04 02:24:04;;;;;;;0.10;0.10;;;7.70;99.90;;;;;;5031897;28;20181;-78
2023/12/04 02:26:37;;;;;;;0.53;0.20;;;7.60;99.90;;;;;;5030935;28;20633;-79
2023/12/04 02:29:07;;;;;;;0.87;0.30;;;7.70;99.90;;;;;;5032422;28;20174;-78
2023/12/04 02:31:34;;;;;;;1.00;0.27;;;7.50;99.90;;;;;;5030461;28;20182;-78
2023/12/04 02:34:02;;;;;;;0.10;0.10;;;7.70;99.90;;;;;;5032816;28;20217;-78
2023/12/04 02:36:30;;;;;;;5.70;0.30;;;7.60;99.90;;;;;;5027396;28;20166;-78
2023/12/04 02:38:56;;;;;;;0.30;0.13;;;7.60;99.90;;;;;;5013621;28;20170;-77
2023/12/04 02:41:22;;;;;;;1.23;0.20;;;7.70;99.90;;;;;;5029089;28;20251;-78
2023/12/04 02:43:48;;;;;;;0.37;0.20;;;8.00;99.90;;;;;;5031900;28;20636;-77
2023/12/04 02:46:13;;;;;;;1.87;0.10;;;7.70;99.90;;;;;;5043807;28;20180;-76
2023/12/04 02:48:39;;;;;;;0.87;0.10;;;7.80;99.90;;;;;;5055948;28;20178;-78
2023/12/04 02:51:05;;;;;;;0.40;0.20;;;7.90;99.90;;;;;;5035813;28;20181;-77
2023/12/04 02:53:31;;;;;;;1.00;0.20;;;8.10;99.90;;;;;;5017073;28;20222;-77
2023/12/04 02:55:56;;;;;;;1.13;0.30;;;8.00;99.90;;;;;;5040215;28;20176;-75
2023/12/04 02:58:22;;;;;;;0.93;0.20;;;8.20;99.90;;;;;;5037552;28;20217;-76
2023/12/04 03:00:48;;;;;;;0.40;0.20;;;7.80;99.90;;;;;;5033256;28;20185;-76
2023/12/04 03:03:13;;;;;;;0.93;0.40;;;8.00;99.90;;;;;;5032031;28;20186;-76
2023/12/04 03:05:39;;;;;;;0.50;0.27;;;8.20;99.90;;;;;;5032240;28;20252;-76
2023/12/04 03:08:05;;;;;;;0.43;0.13;;;;;;;;;;5030679;28;20186;-77
2023/12/04 03:10:31;;;;;;;1.67;0.50;;;8.40;99.90;;;;;;5032064;28;20177;-77
2023/12/04 03:12:56;;;;;;;0.80;0.47;;;8.10;99.90;;;;;;5030502;28;20225;-77
2023/12/04 03:15:22;;;;;;;2.13;0.50;;;8.40;99.90;;;;;;5031354;28;20182;-75
2023/12/04 03:17:48;;;;;;;0.50;0.30;;;8.20;99.90;;;;;;5030253;28;20311;-73
2023/12/04 03:20:13;;;;;;;1.97;0.50;;;8.10;99.90;;;;;;5031772;28;20174;-73
2023/12/04 03:22:39;;;;;;;1.27;0.40;;;8.20;99.90;;;;;;5030136;28;20220;-75
2023/12/04 03:25:05;;;;;;;1.60;0.40;;;8.30;99.90;;;;;;5030718;28;20237;-75
2023/12/04 03:27:31;;;;;;;1.63;0.50;;;8.50;99.90;;;;;;5031729;28;20186;-75
2023/12/04 03:29:57;;;;;;;1.23;0.47;;;;;;;;;;5029463;28;20618;-72
2023/12/04 03:32:22;;;;;;;1.03;0.40;;;8.60;99.90;;;;;;5030415;28;20830;-73
2023/12/04 03:34:48;;;;;;;1.03;0.40;;;8.70;99.90;;;;;;5029613;28;20189;-74
2023/12/04 03:37:13;;;;;;;0.63;0.30;;;8.70;99.90;;;;;;5031151;28;20184;-73
2023/12/04 03:39:39;;;;;;;1.43;0.37;;;8.60;99.90;;;;;;5029543;28;20707;-73
2023/12/04 03:42:05;;;;;;;2.53;0.63;;;8.30;99.90;;;;;;5030003;28;20177;-73
2023/12/04 03:44:31;;;;;;;3.00;0.60;;;;;;;;;;5028835;28;20185;-73
2023/12/04 03:46:56;;;;;;;2.37;0.57;;;8.90;99.90;;;;;;5030800;28;20189;-74
2023/12/04 03:49:22;;;;;;;1.73;0.60;;;8.70;99.90;;;;;;5029681;28;20181;-73
2023/12/04 03:51:47;;;;;;;1.63;0.50;;;8.80;99.90;;;;;;5029967;28;20186;-73
2023/12/04 03:54:13;;;;;;;3.47;0.67;;;8.90;99.90;;;;;;5030735;28;20214;-72
2023/12/04 03:56:40;;;;;;;1.37;0.67;;;8.70;99.90;;;;;;5028730;28;20201;-72
2023/12/04 03:59:08;;;;;;;2.00;0.50;;;8.80;99.90;;;;;;5029716;28;20200;-71
2023/12/04 04:01:34;;;;;;;1.87;0.47;;;9.10;99.90;;;;;;5028448;28;20213;-73
2023/12/04 04:03:59;;;;;;;2.67;0.50;;;8.80;99.90;;;;;;5029519;28;20640;-73
2023/12/04 04:06:25;;;;;;;1.93;0.43;;;8.80;99.90;;;;;;5030008;28;20592;-73
2023/12/04 04:08:52;;;;;;;3.87;0.70;;;8.60;99.90;;;;;;5029459;28;20182;-73
2023/12/04 04:11:18;;;;;;;2.43;0.50;;;8.80;99.90;;;;;;5028995;28;20372;-72
2023/12/04 04:13:43;;;;;;;4.27;0.50;;;8.60;99.90;;;;;;5029612;28;20293;-74
2023/12/04 04:16:16;;;;;;;2.77;0.57;;;8.70;99.90;;;;;;5029064;28;20184;-73
2023/12/04 04:18:43;;;;;;;5.97;0.60;;;8.60;99.90;;;;;;5026138;28;20186;-73
2023/12/04 04:21:09;;;;;;;4.00;0.60;;;8.40;99.90;;;;;;5029732;28;20182;-73
2023/12/04 04:23:34;;;;;;;2.53;0.37;;;8.50;99.90;;;;;;5029454;28;20185;-73
2023/12/04 04:26:00;;;;;;;2.73;0.67;;;8.50;99.90;;;;;;5030243;28;20637;-74
2023/12/04 04:28:26;;;;;;;1.90;0.40;;;;;;;;;;5028659;28;20178;-73
2023/12/04 04:30:52;;;;;;;3.90;0.73;;;8.40;99.90;;;;;;5030276;28;20268;-73
2023/12/04 04:33:18;;;;;;;2.20;0.60;;;8.30;99.90;;;;;;5028068;28;20355;-73
2023/12/04 04:35:43;;;;;;;2.10;0.53;;;8.10;99.90;;;;;;5029384;28;20185;-73
2023/12/04 04:38:09;;;;;;;1.80;0.40;;;8.20;99.90;;;;;;5028744;28;20183;-75
2023/12/04 04:40:35;;;;;;;1.47;0.40;;;7.90;99.90;;;;;;5012271;28;20222;-74
2023/12/04 04:43:01;;;;;;;2.17;0.60;;;8.00;99.90;;;;;;5028765;28;20223;-74
2023/12/04 04:45:26;;;;;;;2.70;0.77;;;8.00;99.90;;;;;;5029972;28;20181;-74
2023/12/04 04:47:52;;;;;;;2.13;0.50;;;8.00;99.90;;;;;;5028522;28;20197;-74
2023/12/04 04:50:18;;;;;;;4.83;0.40;;;8.00;99.90;;;;;;5029274;28;20185;-73
2023/12/04 04:52:43;;;;;;;1.47;0.60;;;7.80;99.90;;;;;;5029229;28;20197;-73
2023/12/04 04:55:09;;;;;;;3.97;0.50;;;8.10;99.90;;;;;;5028675;28;20651;-74
2023/12/04 04:57:35;;;;;;;2.50;0.50;;;8.00;99.90;;;;;;5030418;28;20633;-73
2023/12/04 05:00:00;;;;;;;1.80;0.57;;;8.00;99.90;;;;;;5029928;28;20644;-73
2023/12/04 05:02:26;;;;;;;1.37;0.50;;;7.80;99.90;;;;;;5029268;28;20181;-73
2023/12/04 05:04:51;;;;;;;3.97;0.90;;;8.80;99.90;;;;;;5028612;28;20178;-73
2023/12/04 05:07:17;;;;;;;2.83;0.60;;;8.00;99.90;;;;;;5045155;28;20201;-73
2023/12/04 05:09:43;;;;;;;2.27;0.53;;;8.20;99.90;;;;;;5048652;28;20240;-73
2023/12/04 05:12:08;;;;;;;1.00;0.50;;;8.20;99.90;;;;;;5033444;28;20178;-73
2023/12/04 05:14:35;;;;;;;3.40;0.97;;;;;;;;;;5012155;28;20738;-74
2023/12/04 05:17:00;;;;;;;2.83;0.77;;;8.20;99.90;;;;;;5029801;28;20181;-72
2023/12/04 05:19:26;;;;;;;1.70;0.60;;;8.40;99.90;;;;;;5029213;28;20546;-74
2023/12/04 05:21:52;;;;;;;2.30;0.70;;;8.20;99.90;;;;;;5028096;28;20300;-74
2023/12/04 05:24:17;;;;;;;2.30;0.70;;;8.10;99.90;;;;;;5029925;28;20185;-74
2023/12/04 05:26:43;;;;;;;2.10;0.90;;;8.20;99.90;;;;;;5028086;28;20713;-72
2023/12/04 05:29:09;;;;;;;2.43;0.70;;;8.30;99.90;;;;;;5029895;28;20711;-73
2023/12/04 05:31:34;;;;;;;3.07;0.80;;;8.20;99.90;;;;;;5031505;28;20182;-73
2023/12/04 05:34:00;;;;;;;3.37;0.70;;;8.30;99.90;;;;;;5014997;28;20213;-73
2023/12/04 05:36:26;;;;;;;4.13;0.80;;;7.90;99.90;;;;;;5032740;28;20569;-73
2023/12/04 05:38:53;;;;;;;3.13;0.90;;;8.20;99.90;;;;;;5028895;28;20174;-73
2023/12/04 05:41:19;;;;;;;2.10;0.60;;;8.10;99.90;;;;;;5031944;28;20182;-73
2023/12/04 05:43:45;;;;;;;3.17;0.73;;;8.30;99.90;;;;;;5032673;28;20240;-73
2023/12/04 05:46:10;;;;;;;4.27;0.80;;;8.20;99.90;;;;;;5032660;28;20696;-72
2023/12/04 05:48:36;;;;;;;3.57;0.83;;;;;;;;;;5034305;28;20262;-73
2023/12/04 05:51:02;;;;;;;2.57;0.80;;;8.30;99.90;;;;;;5045198;28;20178;-74
2023/12/04 05:53:29;;;;;;;3.47;0.87;;;8.20;99.90;;;;;;5036421;28;20218;-74
2023/12/04 05:55:54;;;;;;;1.63;0.67;;;8.20;99.90;;;;;;5034363;28;20217;-73
2023/12/04 05:58:20;;;;;;;1.80;0.60;;;8.30;99.90;;;;;;5032012;28;20263;-74
2023/12/04 06:00:46;;;;;;;2.07;0.77;;;8.30;99.90;;;;;;5032384;28;20196;-73
2023/12/04 06:03:11;;;;;;;3.07;0.77;;;8.10;99.90;;;;;;5032195;28;20177;-73
2023/12/04 06:05:37;;;;;;;3.10;1.00;;;7.70;99.90;;;;;;5014417;28;20186;-73
2023/12/04 06:08:03;;;;;;;4.80;0.80;;;8.30;99.90;;;;;;5032166;28;20178;-73
2023/12/04 06:10:28;;;;;;;3.93;0.73;;;8.40;99.90;;;;;;5031709;28;20264;-74
2023/12/04 06:12:54;;;;;;;4.03;0.70;;;8.30;99.90;;;;;;5031623;28;20573;-74
2023/12/04 06:15:20;;;;;;;7.83;1.30;;;8.40;99.90;;;;;;5030450;28;20704;-72
2023/12/04 06:17:45;;;;;;;6.57;1.20;;;8.10;99.90;;;;;;5032413;28;20178;-73
2023/12/04 06:20:11;;;;;;;2.67;1.10;;;8.30;99.90;;;;;;5030932;28;20313;-73
2023/12/04 06:22:37;;;;;;;6.40;1.43;;;8.30;99.90;;;;;;5032371;28;20560;-73
2023/12/04 06:25:03;;;;;;;4.27;1.10;;;8.20;99.90;;;;;;5012834;28;20237;-73
2023/12/04 06:27:29;;;;;;;5.13;1.10;;;8.20;99.90;;;;;;5031234;28;20190;-73
2023/12/04 06:29:55;;;;;;;3.87;0.97;;;8.20;99.90;;;;;;5030825;28;20190;-73
2023/12/04 06:32:21;;;;;;;2.63;1.07;;;8.20;99.90;;;;;;5032287;28;20178;-74
2023/12/04 06:34:47;;;;;;;3.57;1.47;;;8.20;99.90;;;;;;5031665;28;20206;-73
2023/12/04 06:37:13;;;;;;;3.03;1.03;;;8.40;99.90;;;;;;5031326;28;20182;-73
2023/12/04 06:39:40;;;;;;;4.73;1.03;;;8.50;99.90;;;;;;5031297;28;20230;-73
2023/12/04 06:42:07;;;;;;;3.50;1.23;;;8.30;99.90;;;;;;5029267;28;20182;-73
2023/12/04 06:44:33;;;;;;;3.20;1.00;;;8.40;99.90;;;;;;5032421;28;20180;-74
2023/12/04 06:47:01;;;;;;;3.30;1.10;;;8.30;99.90;;;;;;5030565;28;20263;-74
2023/12/04 06:49:31;;;;;;;2.53;1.27;;;8.40;99.90;;;;;;5031228;28;20180;-74
2023/12/04 06:51:56;;;;;;;3.93;1.10;;;8.00;99.90;;;;;;5030530;28;20190;-74
2023/12/04 06:54:22;;;;;;;2.63;1.13;;;8.20;99.90;;;;;;5031826;28;20573;-73
2023/12/04 06:56:48;;;;;;;3.73;1.20;;;8.20;99.90;;;;;;5030508;28;20208;-74
2023/12/04 06:59:13;;;;;;;7.50;1.33;;;8.10;99.90;;;;;;5013384;28;20683;-73
2023/12/04 07:01:39;;;;;;;3.10;1.10;;;8.20;99.90;;;;;;5030329;28;20170;-73
2023/12/04 07:04:09;;;;;;;3.47;1.20;;;8.40;99.90;;;;;;5031801;28;20190;-73
2023/12/04 07:06:38;;;;;;;4.17;1.60;;;8.20;99.90;;;;;;5030370;28;20295;-73
2023/12/04 07:09:07;;;;;;;6.27;1.53;;;8.10;99.90;;;;;;5027193;28;20209;-73
2023/12/04 07:11:32;;;;;;;7.23;1.60;;;8.10;99.90;;;;;;5031264;28;20185;-74
2023/12/04 07:13:59;;;;;;;5.00;1.53;;;8.00;99.90;;;;;;5030796;28;20209;-74
2023/12/04 07:16:24;;;;;;;5.80;1.50;;;8.10;99.90;;;;;;5030912;28;20656;-74
2023/12/04 07:18:50;;;;;;;6.70;2.23;;;8.10;99.90;;;;;;5027039;28;20194;-74
2023/12/04 07:21:16;;;;;;;5.97;1.90;;;8.00;99.90;;;;;;5031133;28;20744;-74
2023/12/04 07:23:41;;;;;;;5.60;1.60;;;7.60;99.90;;;;;;5029933;28;20196;-74
2023/12/04 07:26:07;;;;;;;4.37;1.57;;;8.10;99.90;;;;;;5030695;28;20703;-74
2023/12/04 07:28:34;;;;;;;7.17;1.70;;;8.30;99.90;;;;;;5048424;28;20186;-75
2023/12/04 07:31:01;;;;;;;3.37;1.57;;;;;;;;;;5050733;28;20193;-75
2023/12/04 07:33:27;;;;;;;5.57;1.90;;;8.20;99.90;;;;;;5031980;28;20271;-74
2023/12/04 07:35:53;;;;;;;5.93;1.93;;;8.30;99.90;;;;;;5031866;28;20177;-74
2023/12/04 07:38:19;;;;;;;6.37;2.03;;;8.20;99.90;;;;;;5029837;28;20243;-75
2023/12/04 07:40:45;;;;;;;6.93;2.10;;;8.20;99.90;;;;;;5030152;28;20305;-75
2023/12/04 07:43:12;;;;;;;5.27;1.70;;;8.20;99.90;;;;;;5029787;28;20182;-75
2023/12/04 07:45:37;;;;;;;4.97;1.70;;;8.00;99.90;;;;;;5029373;28;20692;-73
2023/12/04 07:48:04;;;;;;;5.87;1.63;;;8.20;99.90;;;;;;5030292;28;20265;-74
2023/12/04 07:50:30;;;;;;;4.43;1.53;;;8.00;99.90;;;;;;5030015;28;20178;-77
2023/12/04 07:52:56;;;;;;;4.60;1.40;;;8.30;99.90;;;;;;5030570;28;20213;-76
2023/12/04 07:55:21;;;;;;;5.03;1.20;;;8.30;99.90;;;;;;5028327;28;20706;-73
2023/12/04 07:57:48;;;;;;;3.20;1.27;;;8.80;99.90;;;;;;5032163;28;20181;-73
2023/12/04 08:00:14;;;;;;;7.90;1.60;;;8.30;99.90;;;;;;5029038;28;20193;-73
2023/12/04 08:02:40;;;;;;;8.27;1.50;;;8.30;99.90;;;;;;5029992;28;20639;-73
2023/12/04 08:05:06;;;;;;;5.77;1.40;;;8.30;99.90;;;;;;5030463;28;20224;-73
2023/12/04 08:07:32;;;;;;;3.73;1.40;;;8.30;99.90;;;;;;5039238;28;20173;-74
2023/12/04 08:09:57;;;;;;;4.90;1.30;;;8.50;99.90;;;;;;5031333;28;20182;-73
2023/12/04 08:12:23;;;;;;;4.07;1.27;;;8.40;99.90;;;;;;5042351;28;20182;-72
2023/12/04 08:14:49;;;;;;;3.23;1.23;;;;;;;;;;5030193;28;20260;-73
2023/12/04 08:17:15;;;;;;;5.13;1.40;;;8.50;99.90;;;;;;5029453;28;20177;-74
2023/12/04 08:19:41;;;;;;;4.93;1.50;;;8.50;99.90;;;;;;5030074;28;20567;-74
2023/12/04 08:22:07;;;;;;;5.73;1.43;;;8.60;99.90;;;;;;5024593;28;20178;-74
2023/12/04 08:24:33;;;;;;;6.67;1.80;;;;;;;;;;5030467;28;20186;-74
2023/12/04 08:26:58;;;;;;;6.10;2.47;;;7.40;99.90;;;;;;5028877;28;20265;-75
2023/12/04 08:29:24;;;;;;;7.33;2.27;;;8.70;99.90;;;;;;5029779;28;20265;-76
2023/12/04 08:31:50;;;;;;;4.90;1.90;;;8.50;99.90;;;;;;5028684;28;20201;-75
2023/12/04 08:34:16;;;;;;;5.03;1.40;;;8.60;99.90;;;;;;5030488;28;20615;-74
2023/12/04 08:36:41;;;;;;;5.23;2.07;;;8.70;99.90;;;;;;5029877;28;20178;-75
2023/12/04 08:39:07;;;;;;;6.03;1.80;;;8.70;99.90;;;;;;5028553;28;20181;-75
2023/12/04 08:41:33;;;;;;;5.07;1.50;;;8.60;99.90;;;;;;5030294;28;20197;-74
2023/12/04 08:43:58;;;;;;;5.40;1.70;;;8.60;99.90;;;;;;5027543;28;20178;-74
2023/12/04 08:46:24;;;;;;;5.20;1.80;;;8.60;99.90;;;;;;5036206;28;20181;-75
2023/12/04 08:48:50;;;;;;;5.47;2.33;;;8.50;99.90;;;;;;5034549;28;20531;-74
2023/12/04 08:51:19;;;;;;;8.50;2.40;;;8.60;99.90;;;;;;5031285;28;20174;-75
2023/12/04 08:53:44;;;;;;;6.57;2.30;;;8.30;99.90;;;;;;5029563;28;20218;-75
2023/12/04 08:56:10;;;;;;;5.20;1.77;;;8.50;99.90;;;;;;5029561;28;20529;-74
2023/12/04 08:58:37;;;;;;;5.70;2.00;;;8.60;99.90;;;;;;5028796;28;20182;-75
2023/12/04 09:01:03;;;;;;;7.77;1.87;;;8.50;99.90;;;;;;5030179;28;20185;-75
2023/12/04 09:03:31;;;;;;;7.53;1.93;;;8.50;99.90;;;;;;5029136;28;20186;-75
2023/12/04 09:05:57;;;;;;;5.07;1.60;;;8.50;99.90;;;;;;5013770;28;20565;-76
2023/12/04 09:08:25;;;;;;;5.53;1.47;;;8.60;99.90;;;;;;5033052;28;20656;-74
2023/12/04 09:10:51;;;;;;;7.50;1.90;;;8.70;99.90;;;;;;5031380;28;20170;-74
2023/12/04 09:13:16;;;;;;;6.40;1.83;;;8.70;99.90;;;;;;5033573;28;20252;-75
2023/12/04 09:15:42;;;;;;;7.43;2.00;;;8.60;99.90;;;;;;5032055;28;20174;-74
2023/12/04 09:18:08;;;;;;;4.97;1.93;;;8.70;99.90;;;;;;5032800;28;20174;-74
2023/12/04 09:20:34;;;;;;;5.07;2.00;;;8.70;99.90;;;;;;5031573;28;20768;-73
2023/12/04 09:22:59;;;;;;;6.33;1.90;;;8.70;99.90;;;;;;5032543;28;20640;-73
2023/12/04 09:25:25;;;;;;;5.50;1.90;;;8.80;99.90;;;;;;5014826;28;20178;-74
2023/12/04 09:27:51;;;;;;;5.40;1.93;;;8.80;99.90;;;;;;5015629;28;20178;-75
2023/12/04 09:30:17;;;;;;;6.77;2.20;;;8.80;99.90;;;;;;5032535;28;20243;-75
2023/12/04 09:32:43;;;;;;;4.87;2.10;;;8.80;99.90;;;;;;5032995;28;20181;-75
2023/12/04 09:35:10;;;;;;;112.50;6.03;;;8.80;99.90;;;;;;5032887;28;20182;-75
2023/12/04 09:37:35;;;;;;;7.93;2.30;;;8.90;99.90;;;;;;5032674;28;20232;-75
2023/12/04 09:40:01;;;;;;;6.93;1.93;;;8.90;99.90;;;;;;5030469;28;20225;-74
2023/12/04 09:42:27;;;;;;;6.77;2.00;;;8.50;99.90;;;;;;5032818;28;20189;-75
2023/12/04 09:44:54;;;;;;;39.03;3.23;;;8.80;99.90;;;;;;5034075;28;20169;-74
2023/12/04 09:47:20;;;;;;;4.30;1.93;;;8.80;99.90;;;;;;5031263;28;20186;-75
2023/12/04 09:49:46;;;;;;;7.20;1.90;;;8.80;99.90;;;;;;5032461;28;20182;-75
2023/12/04 09:52:12;;;;;;;70.40;4.73;;;8.80;99.90;;;;;;5028658;28;20213;-75
2023/12/04 09:54:40;;;;;;;4.63;2.00;;;8.80;99.90;;;;;;5055397;28;20213;-75
2023/12/04 09:57:06;;;;;;;5.17;2.30;;;8.80;99.90;;;;;;5037091;28;20210;-77
2023/12/04 09:59:31;;;;;;;6.10;2.23;;;8.80;99.90;;;;;;5035867;28;20182;-76
2023/12/04 10:02:00;;;;;;;3.57;1.83;;;8.70;99.90;;;;;;5032728;28;20192;-75
2023/12/04 10:04:26;;;;;;;4.17;1.87;;;8.80;99.90;;;;;;5028621;28;20182;-77
2023/12/04 10:06:54;;;;;;;4.80;1.97;;;8.90;99.90;;;;;;5031835;28;20181;-76
2023/12/04 10:09:22;;;;;;;3.70;2.03;;;9.10;99.90;;;;;;5031736;28;20228;-73
2023/12/04 10:11:50;;;;;;;4.13;1.90;;;8.60;99.90;;;;;;5032767;28;20174;-73
2023/12/04 10:14:21;;;;;;;7.60;2.07;;;9.10;99.90;;;;;;5031336;28;20300;-72
2023/12/04 10:16:47;;;;;;;4.53;1.93;;;8.90;99.90;;;;;;5031525;28;20174;-73
2023/12/04 10:19:18;;;;;;;4.90;2.10;;;8.90;99.90;;;;;;5030755;28;20280;-73
2023/12/04 10:21:46;;;;;;;4.17;2.00;;;8.90;99.90;;;;;;5032385;28;20196;-74
2023/12/04 10:24:12;;;;;;;3.50;1.77;;;8.90;99.90;;;;;;5031133;28;20173;-76
2023/12/04 10:26:39;;;;;;;4.30;2.50;;;8.90;99.90;;;;;;5024763;28;20648;-74
2023/12/04 10:29:07;;;;;;;4.10;2.30;;;8.90;99.90;;;;;;5032307;28;20253;-73
2023/12/04 10:31:34;;;;;;;4.03;2.63;;;9.00;99.90;;;;;;5033041;28;20174;-74
2023/12/04 10:34:00;;;;;;;3.53;2.70;;;8.90;99.90;;;;;;5031683;28;20272;-76
2023/12/04 10:36:26;;;;;;;3.80;2.70;;;8.90;99.90;;;;;;5031719;28;20170;-74
2023/12/04 10:39:00;;;;;;;5.07;2.37;;;9.00;99.90;;;;;;5031558;28;20731;-72
2023/12/04 10:41:25;;;;;;;5.57;2.83;;;8.80;99.90;;;;;;5032947;28;20196;-74
2023/12/04 10:43:51;;;;;;;3.77;2.70;;;9.10;99.90;;;;;;5030677;28;20182;-74
2023/12/04 10:46:18;;;;;;;4.87;2.90;;;8.90;99.90;;;;;;5031273;28;20252;-74
2023/12/04 10:48:47;;;;;;;3.83;2.73;;;8.90;99.90;;;;;;5031344;28;20174;-72
2023/12/04 10:51:15;;;;;;;3.87;2.63;;;9.00;99.90;;;;;;5031318;28;20224;-74
2023/12/04 10:53:42;;;;;;;3.43;2.70;;;8.90;99.90;;;;;;5012659;28;20224;-72
2023/12/04 10:56:14;;;;;;;5.20;2.73;;;8.90;99.90;;;;;;5030544;28;20178;-75
2023/12/04 10:58:41;;;;;;;5.07;2.80;;;8.80;99.90;;;;;;5031004;28;20178;-74
2023/12/04 11:01:11;;;;;;;4.33;2.40;;;8.80;99.90;;;;;;5044388;28;20177;-77
2023/12/04 11:03:53;;;;;;;3.70;2.60;;;8.90;99.90;;;;;;5030900;28;20197;-77
2023/12/04 11:06:21;;;;;;;4.00;2.60;;;8.80;99.90;;;;;;5030282;28;20185;-78
2023/12/04 11:08:52;;;;;;;2.30;2.00;;;8.80;99.90;;;;;;5030198;28;20231;-77
2023/12/04 11:11:34;;;;;;;6.70;2.30;;;8.80;99.90;;;;;;5030483;28;20713;-77
2023/12/04 11:14:03;;;;;;;4.57;2.40;;;8.50;99.90;;;;;;5029724;28;20219;-78
2023/12/04 11:16:47;;;;;;;2.50;2.00;;;8.90;99.90;;;;;;5030674;28;20174;-76
2023/12/04 11:19:28;;;;;;;3.60;1.80;;;8.80;99.90;;;;;;5029693;28;20189;-75
2023/12/04 11:22:00;;;;;;;2.17;1.50;;;8.40;99.90;;;;;;5024248;28;20190;-76
2023/12/04 11:24:26;;;;;;;2.30;1.63;;;8.80;99.90;;;;;;5029980;28;20174;-78
2023/12/04 11:26:53;;;;;;;3.00;1.83;;;8.70;99.90;;;;;;5031522;28;20192;-77
2023/12/04 11:29:19;;;;;;;1.93;1.43;;;8.80;99.90;;;;;;5026989;28;20166;-76
2023/12/04 11:31:46;;;;;;;2.10;1.50;;;8.60;99.90;;;;;;5029912;28;20196;-75
2023/12/04 11:34:12;;;;;;;1.40;1.30;;;8.50;99.90;;;;;;5029499;28;20217;-76
2023/12/04 11:36:38;;;;;;;1.60;1.10;;;8.40;99.90;;;;;;5031220;28;20209;-76
2023/12/04 11:39:10;;;;;;;1.10;1.00;;;8.20;99.90;;;;;;5029598;28;20178;-76
2023/12/04 11:41:36;;;;;;;1.07;0.93;;;7.90;99.90;;;;;;5033109;28;20293;-77
2023/12/04 11:44:02;;;;;;;0.90;0.80;;;8.00;99.90;;;;;;5037893;28;20293;-78
2023/12/04 11:46:30;;;;;;;2.67;0.90;;;8.30;99.90;;;;;;5034366;28;20181;-77
2023/12/04 11:49:25;;;;;;;1.00;0.73;;;8.00;99.90;;;;;;5013440;28;20331;-78
2023/12/04 11:51:52;;;;;;;1.20;0.60;;;8.00;99.90;;;;;;5026157;28;20204;-80
2023/12/04 11:54:24;;;;;;;0.87;0.60;;;7.70;99.90;;;;;;5030327;28;20214;-79
2023/12/04 11:56:59;;;;;;;0.87;0.40;;;7.80;99.90;;;;;;5013674;28;20271;-79
2023/12/04 11:59:26;;;;;;;1.53;0.53;;;;;;;;;;5031160;28;20181;-79
2023/12/04 12:01:56;;;;;;;3.07;0.60;;;7.60;99.90;;;;;;5032846;28;20207;-78
2023/12/04 12:04:21;;;;;;;0.80;0.50;;;7.70;99.90;;;;;;5032261;28;20235;-79
2023/12/04 12:06:47;;;;;;;0.50;0.40;;;7.70;99.90;;;;;;5031510;28;20642;-78
2023/12/04 12:09:14;;;;;;;0.87;0.50;;;7.70;99.90;;;;;;5013382;28;20240;-79
2023/12/04 12:11:40;;;;;;;1.33;0.60;;;7.70;99.90;;;;;;5032724;28;20182;-79
2023/12/04 12:14:05;;;;;;;2.70;0.40;;;7.60;99.90;;;;;;5026575;28;20224;-79
2023/12/04 12:16:32;;;;;;;0.73;0.60;;;7.60;99.90;;;;;;5031216;28;20190;-79
2023/12/04 12:19:01;;;;;;;0.60;0.50;;;7.60;99.90;;;;;;5039229;28;20169;-78
2023/12/04 12:21:28;;;;;;;0.50;0.47;;;7.50;99.90;;;;;;5054976;28;20185;-77
2023/12/04 12:23:54;;;;;;;2.73;0.40;;;7.30;99.90;;;;;;5042282;28;20188;-78
2023/12/04 12:26:20;;;;;;;0.60;0.40;;;;;;;;;;5035684;28;20185;-78
2023/12/04 12:28:47;;;;;;;0.30;0.30;;;;;;;;;;5033422;28;20174;-75
2023/12/04 12:31:15;;;;;;;2.63;0.40;;;7.40;99.90;;;;;;5038789;28;20656;-77
2023/12/04 12:33:41;;;;;;;1.23;0.50;;;7.40;99.90;;;;;;4999598;28;20753;-79
2023/12/04 12:36:08;;;;;;;3.50;0.37;;;7.30;99.90;;;;;;5031421;28;20189;-78
2023/12/04 12:38:35;;;;;;;1.10;0.30;;;7.30;99.90;;;;;;5031825;28;20215;-78
2023/12/04 12:41:05;;;;;;;0.30;0.20;;;7.10;99.90;;;;;;5032401;28;20265;-78
2023/12/04 12:43:31;;;;;;;0.90;0.40;;;7.20;99.90;;;;;;5033363;28;20184;-78
2023/12/04 12:45:56;;;;;;;1.67;0.30;;;7.20;99.90;;;;;;5030211;28;20260;-77
2023/12/04 12:48:22;;;;;;;0.60;0.30;;;7.30;99.90;;;;;;5030577;28;20174;-76
2023/12/04 12:50:48;;;;;;;1.97;0.40;;;7.20;99.90;;;;;;5025723;28;20173;-76
2023/12/04 12:53:14;;;;;;;1.47;0.40;;;7.00;99.90;;;;;;5030151;28;20210;-76
2023/12/04 12:55:43;;;;;;;0.87;0.33;;;7.40;99.90;;;;;;5030574;28;20186;-78